sensor_id;sensor_type;location;lat;lon;timestamp;P1;durP1;ratioP1;P2;durP2;ratioP2
6671;SDS011;3372;48.690;12.362;2022-08-04T00:00:28;3.43;;;3.00;;
6671;SDS011;3372;48.690;12.362;2022-08-04T00:03:01;4.63;;;3.07;;
6671;SDS011;3372;48.690;12.362;2022-08-04T00:05:34;3.07;;;2.77;;
6671;SDS011;3372;48.690;12.362;2022-08-04T00:10:39;3.67;;;3.27;;
6671;SDS011;3372;48.690;12.362;2022-08-04T00:13:11;3.20;;;2.80;;
6671;SDS011;3372;48.690;12.362;2022-08-04T00:15:37;3.20;;;2.77;;
6671;SDS011;3372;48.690;12.362;2022-08-04T00:18:04;3.33;;;3.03;;
6671;SDS011;3372;48.690;12.362;2022-08-04T00:20:32;3.63;;;3.27;;
6671;SDS011;3372;48.690;12.362;2022-08-04T00:23:00;2.93;;;2.63;;
6671;SDS011;3372;48.690;12.362;2022-08-04T00:25:27;3.53;;;2.90;;
6671;SDS011;3372;48.690;12.362;2022-08-04T00:27:55;3.73;;;2.90;;
6671;SDS011;3372;48.690;12.362;2022-08-04T00:30:20;4.53;;;3.20;;
6671;SDS011;3372;48.690;12.362;2022-08-04T00:32:46;3.27;;;2.90;;
6671;SDS011;3372;48.690;12.362;2022-08-04T00:35:12;3.27;;;2.73;;
6671;SDS011;3372;48.690;12.362;2022-08-04T00:37:39;3.20;;;2.77;;
6671;SDS011;3372;48.690;12.362;2022-08-04T00:40:27;3.60;;;3.20;;
6671;SDS011;3372;48.690;12.362;2022-08-04T00:51:54;3.70;;;3.30;;
6671;SDS011;3372;48.690;12.362;2022-08-04T00:55:04;5.47;;;3.47;;
6671;SDS011;3372;48.690;12.362;2022-08-04T01:00:18;4.97;;;3.23;;
6671;SDS011;3372;48.690;12.362;2022-08-04T01:03:05;4.83;;;3.20;;
6671;SDS011;3372;48.690;12.362;2022-08-04T01:06:05;4.13;;;3.27;;
6671;SDS011;3372;48.690;12.362;2022-08-04T01:16:38;3.50;;;3.03;;
6671;SDS011;3372;48.690;12.362;2022-08-04T01:28:05;3.60;;;3.07;;
6671;SDS011;3372;48.690;12.362;2022-08-04T01:30:37;3.60;;;3.30;;
6671;SDS011;3372;48.690;12.362;2022-08-04T01:33:08;4.00;;;3.57;;
6671;SDS011;3372;48.690;12.362;2022-08-04T01:38:39;4.43;;;3.50;;
6671;SDS011;3372;48.690;12.362;2022-08-04T01:41:07;4.03;;;3.60;;
6671;SDS011;3372;48.690;12.362;2022-08-04T01:43:34;3.63;;;3.20;;
6671;SDS011;3372;48.690;12.362;2022-08-04T01:46:08;3.53;;;3.23;;
6671;SDS011;3372;48.690;12.362;2022-08-04T01:48:40;5.43;;;3.97;;
6671;SDS011;3372;48.690;12.362;2022-08-04T01:51:09;4.40;;;3.27;;
6671;SDS011;3372;48.690;12.362;2022-08-04T01:53:36;4.60;;;3.80;;
6671;SDS011;3372;48.690;12.362;2022-08-04T01:56:03;4.10;;;3.40;;
6671;SDS011;3372;48.690;12.362;2022-08-04T01:58:31;4.53;;;3.57;;
6671;SDS011;3372;48.690;12.362;2022-08-04T02:01:00;4.17;;;3.77;;
6671;SDS011;3372;48.690;12.362;2022-08-04T02:03:30;4.20;;;3.43;;
6671;SDS011;3372;48.690;12.362;2022-08-04T02:09:08;4.07;;;3.37;;
6671;SDS011;3372;48.690;12.362;2022-08-04T02:11:44;4.30;;;3.90;;
6671;SDS011;3372;48.690;12.362;2022-08-04T02:17:10;4.50;;;4.10;;
6671;SDS011;3372;48.690;12.362;2022-08-04T02:22:41;4.60;;;3.80;;
6671;SDS011;3372;48.690;12.362;2022-08-04T02:25:13;4.50;;;4.00;;
6671;SDS011;3372;48.690;12.362;2022-08-04T02:31:11;4.97;;;4.40;;
6671;SDS011;3372;48.690;12.362;2022-08-04T02:33:36;6.63;;;4.30;;
6671;SDS011;3372;48.690;12.362;2022-08-04T02:36:08;5.23;;;4.23;;
6671;SDS011;3372;48.690;12.362;2022-08-04T02:41:02;5.00;;;4.20;;
6671;SDS011;3372;48.690;12.362;2022-08-04T02:43:29;4.10;;;3.70;;
6671;SDS011;3372;48.690;12.362;2022-08-04T02:45:56;4.20;;;3.80;;
6671;SDS011;3372;48.690;12.362;2022-08-04T02:48:24;4.40;;;4.00;;
6671;SDS011;3372;48.690;12.362;2022-08-04T02:50:52;4.20;;;3.80;;
6671;SDS011;3372;48.690;12.362;2022-08-04T02:53:21;7.10;;;4.53;;
6671;SDS011;3372;48.690;12.362;2022-08-04T02:55:46;5.73;;;3.93;;
6671;SDS011;3372;48.690;12.362;2022-08-04T02:58:14;4.67;;;4.23;;
6671;SDS011;3372;48.690;12.362;2022-08-04T03:00:43;4.83;;;4.33;;
6671;SDS011;3372;48.690;12.362;2022-08-04T03:17:22;4.77;;;4.30;;
6671;SDS011;3372;48.690;12.362;2022-08-04T03:25:40;5.40;;;4.40;;
6671;SDS011;3372;48.690;12.362;2022-08-04T03:36:54;4.73;;;4.23;;
6671;SDS011;3372;48.690;12.362;2022-08-04T03:50:45;5.40;;;4.50;;
6671;SDS011;3372;48.690;12.362;2022-08-04T03:57:05;4.63;;;4.13;;
6671;SDS011;3372;48.690;12.362;2022-08-04T04:02:44;7.23;;;4.70;;
6671;SDS011;3372;48.690;12.362;2022-08-04T04:32:22;5.90;;;4.70;;
6671;SDS011;3372;48.690;12.362;2022-08-04T04:40:31;5.43;;;4.90;;
6671;SDS011;3372;48.690;12.362;2022-08-04T04:45:52;5.40;;;4.80;;
6671;SDS011;3372;48.690;12.362;2022-08-04T04:48:43;6.23;;;4.47;;
6671;SDS011;3372;48.690;12.362;2022-08-04T04:56:27;5.27;;;4.70;;
6671;SDS011;3372;48.690;12.362;2022-08-04T04:58:56;5.03;;;4.50;;
6671;SDS011;3372;48.690;12.362;2022-08-04T05:14:39;6.30;;;4.80;;
6671;SDS011;3372;48.690;12.362;2022-08-04T05:17:17;5.83;;;4.67;;
6671;SDS011;3372;48.690;12.362;2022-08-04T05:22:53;5.37;;;4.87;;
6671;SDS011;3372;48.690;12.362;2022-08-04T05:25:36;4.90;;;4.40;;
6671;SDS011;3372;48.690;12.362;2022-08-04T05:28:17;5.50;;;4.73;;
6671;SDS011;3372;48.690;12.362;2022-08-04T05:31:04;6.10;;;5.07;;
6671;SDS011;3372;48.690;12.362;2022-08-04T05:33:38;5.37;;;4.87;;
6671;SDS011;3372;48.690;12.362;2022-08-04T05:36:17;6.57;;;5.10;;
6671;SDS011;3372;48.690;12.362;2022-08-04T05:38:48;6.23;;;4.87;;
6671;SDS011;3372;48.690;12.362;2022-08-04T05:41:17;5.90;;;5.30;;
6671;SDS011;3372;48.690;12.362;2022-08-04T05:43:45;7.50;;;5.30;;
6671;SDS011;3372;48.690;12.362;2022-08-04T05:46:11;5.07;;;4.67;;
6671;SDS011;3372;48.690;12.362;2022-08-04T05:48:39;6.00;;;4.80;;
6671;SDS011;3372;48.690;12.362;2022-08-04T05:51:05;4.90;;;4.50;;
6671;SDS011;3372;48.690;12.362;2022-08-04T05:53:34;5.03;;;4.53;;
6671;SDS011;3372;48.690;12.362;2022-08-04T05:56:01;5.20;;;4.70;;
6671;SDS011;3372;48.690;12.362;2022-08-04T05:58:28;5.30;;;4.80;;
6671;SDS011;3372;48.690;12.362;2022-08-04T06:00:55;4.40;;;4.00;;
6671;SDS011;3372;48.690;12.362;2022-08-04T06:03:25;4.17;;;3.77;;
6671;SDS011;3372;48.690;12.362;2022-08-04T06:05:53;5.70;;;4.17;;
6671;SDS011;3372;48.690;12.362;2022-08-04T06:08:20;6.83;;;4.40;;
6671;SDS011;3372;48.690;12.362;2022-08-04T06:10:46;5.90;;;4.23;;
6671;SDS011;3372;48.690;12.362;2022-08-04T06:13:14;6.80;;;4.47;;
6671;SDS011;3372;48.690;12.362;2022-08-04T06:15:42;4.70;;;4.30;;
6671;SDS011;3372;48.690;12.362;2022-08-04T06:18:10;6.63;;;4.13;;
6671;SDS011;3372;48.690;12.362;2022-08-04T06:20:37;5.77;;;4.10;;
6671;SDS011;3372;48.690;12.362;2022-08-04T06:23:07;4.50;;;4.10;;
6671;SDS011;3372;48.690;12.362;2022-08-04T06:25:40;4.60;;;4.20;;
6671;SDS011;3372;48.690;12.362;2022-08-04T06:28:10;5.77;;;4.17;;
6671;SDS011;3372;48.690;12.362;2022-08-04T06:30:36;5.10;;;4.20;;
6671;SDS011;3372;48.690;12.362;2022-08-04T06:33:04;4.33;;;3.93;;
6671;SDS011;3372;48.690;12.362;2022-08-04T06:35:48;4.37;;;3.97;;
6671;SDS011;3372;48.690;12.362;2022-08-04T06:38:15;5.53;;;4.93;;
6671;SDS011;3372;48.690;12.362;2022-08-04T06:40:41;5.47;;;4.27;;
6671;SDS011;3372;48.690;12.362;2022-08-04T06:43:07;9.37;;;4.97;;
6671;SDS011;3372;48.690;12.362;2022-08-04T06:45:35;5.40;;;4.37;;
6671;SDS011;3372;48.690;12.362;2022-08-04T06:48:03;6.37;;;4.27;;
6671;SDS011;3372;48.690;12.362;2022-08-04T06:50:31;4.53;;;4.00;;
6671;SDS011;3372;48.690;12.362;2022-08-04T06:52:59;5.53;;;4.33;;
6671;SDS011;3372;48.690;12.362;2022-08-04T06:55:24;4.57;;;4.17;;
6671;SDS011;3372;48.690;12.362;2022-08-04T06:57:50;4.83;;;4.33;;
6671;SDS011;3372;48.690;12.362;2022-08-04T07:00:18;4.90;;;4.50;;
6671;SDS011;3372;48.690;12.362;2022-08-04T07:02:47;5.70;;;5.10;;
6671;SDS011;3372;48.690;12.362;2022-08-04T07:05:15;6.67;;;4.43;;
6671;SDS011;3372;48.690;12.362;2022-08-04T07:07:42;5.20;;;4.70;;
6671;SDS011;3372;48.690;12.362;2022-08-04T07:10:09;4.90;;;4.50;;
6671;SDS011;3372;48.690;12.362;2022-08-04T07:12:36;5.30;;;4.73;;
6671;SDS011;3372;48.690;12.362;2022-08-04T07:15:03;5.40;;;4.90;;
6671;SDS011;3372;48.690;12.362;2022-08-04T07:17:30;4.60;;;4.20;;
6671;SDS011;3372;48.690;12.362;2022-08-04T07:19:57;4.60;;;4.20;;
6671;SDS011;3372;48.690;12.362;2022-08-04T07:22:24;5.33;;;4.40;;
6671;SDS011;3372;48.690;12.362;2022-08-04T07:24:54;4.63;;;4.23;;
6671;SDS011;3372;48.690;12.362;2022-08-04T07:27:21;4.97;;;4.40;;
6671;SDS011;3372;48.690;12.362;2022-08-04T07:29:47;5.57;;;5.07;;
6671;SDS011;3372;48.690;12.362;2022-08-04T07:32:13;5.73;;;4.50;;
6671;SDS011;3372;48.690;12.362;2022-08-04T07:34:41;7.40;;;4.50;;
6671;SDS011;3372;48.690;12.362;2022-08-04T07:37:07;5.07;;;4.53;;
6671;SDS011;3372;48.690;12.362;2022-08-04T07:39:33;4.93;;;4.53;;
6671;SDS011;3372;48.690;12.362;2022-08-04T07:42:01;4.83;;;4.43;;
6671;SDS011;3372;48.690;12.362;2022-08-04T07:44:32;5.13;;;4.63;;
6671;SDS011;3372;48.690;12.362;2022-08-04T07:46:59;5.47;;;4.97;;
6671;SDS011;3372;48.690;12.362;2022-08-04T07:49:27;5.20;;;4.70;;
6671;SDS011;3372;48.690;12.362;2022-08-04T07:51:53;5.33;;;4.80;;
6671;SDS011;3372;48.690;12.362;2022-08-04T07:54:19;5.70;;;5.13;;
6671;SDS011;3372;48.690;12.362;2022-08-04T07:56:45;5.43;;;4.73;;
6671;SDS011;3372;48.690;12.362;2022-08-04T07:59:13;4.77;;;4.37;;
6671;SDS011;3372;48.690;12.362;2022-08-04T08:01:40;5.23;;;4.73;;
6671;SDS011;3372;48.690;12.362;2022-08-04T08:04:06;6.30;;;5.00;;
6671;SDS011;3372;48.690;12.362;2022-08-04T08:06:34;5.50;;;4.90;;
6671;SDS011;3372;48.690;12.362;2022-08-04T08:09:08;5.10;;;4.60;;
6671;SDS011;3372;48.690;12.362;2022-08-04T08:11:42;5.30;;;4.90;;
6671;SDS011;3372;48.690;12.362;2022-08-04T08:14:11;5.63;;;4.67;;
6671;SDS011;3372;48.690;12.362;2022-08-04T08:16:37;6.13;;;5.60;;
6671;SDS011;3372;48.690;12.362;2022-08-04T08:19:03;5.20;;;4.70;;
6671;SDS011;3372;48.690;12.362;2022-08-04T08:21:29;6.27;;;4.93;;
6671;SDS011;3372;48.690;12.362;2022-08-04T08:23:55;5.80;;;5.00;;
6671;SDS011;3372;48.690;12.362;2022-08-04T08:26:21;6.33;;;4.40;;
6671;SDS011;3372;48.690;12.362;2022-08-04T08:28:47;5.57;;;4.40;;
6671;SDS011;3372;48.690;12.362;2022-08-04T08:31:13;6.33;;;4.60;;
6671;SDS011;3372;48.690;12.362;2022-08-04T08:33:38;6.00;;;4.53;;
6671;SDS011;3372;48.690;12.362;2022-08-04T08:36:25;5.00;;;4.60;;
6671;SDS011;3372;48.690;12.362;2022-08-04T08:39:00;5.07;;;4.57;;
6671;SDS011;3372;48.690;12.362;2022-08-04T08:47:34;5.17;;;4.73;;
6671;SDS011;3372;48.690;12.362;2022-08-04T08:55:45;5.17;;;4.50;;
6671;SDS011;3372;48.690;12.362;2022-08-04T08:58:18;5.10;;;4.60;;
6671;SDS011;3372;48.690;12.362;2022-08-04T09:01:02;5.27;;;4.83;;
6671;SDS011;3372;48.690;12.362;2022-08-04T09:12:16;5.83;;;4.00;;
6671;SDS011;3372;48.690;12.362;2022-08-04T09:14:54;4.50;;;4.10;;
6671;SDS011;3372;48.690;12.362;2022-08-04T09:20:12;4.73;;;4.33;;
6671;SDS011;3372;48.690;12.362;2022-08-04T09:22:50;5.43;;;4.90;;
6671;SDS011;3372;48.690;12.362;2022-08-04T09:25:25;5.50;;;5.00;;
6671;SDS011;3372;48.690;12.362;2022-08-04T09:27:59;4.90;;;4.50;;
6671;SDS011;3372;48.690;12.362;2022-08-04T09:30:42;4.83;;;4.43;;
6671;SDS011;3372;48.690;12.362;2022-08-04T09:36:19;5.80;;;4.50;;
6671;SDS011;3372;48.690;12.362;2022-08-04T09:39:07;4.90;;;4.50;;
6671;SDS011;3372;48.690;12.362;2022-08-04T09:41:40;4.90;;;4.50;;
6671;SDS011;3372;48.690;12.362;2022-08-04T09:44:27;4.87;;;4.47;;
6671;SDS011;3372;48.690;12.362;2022-08-04T10:01:16;4.87;;;4.47;;
6671;SDS011;3372;48.690;12.362;2022-08-04T10:03:47;5.20;;;4.70;;
6671;SDS011;3372;48.690;12.362;2022-08-04T10:11:45;5.30;;;4.47;;
6671;SDS011;3372;48.690;12.362;2022-08-04T10:14:37;4.30;;;3.90;;
6671;SDS011;3372;48.690;12.362;2022-08-04T10:20:02;6.07;;;3.80;;
6671;SDS011;3372;48.690;12.362;2022-08-04T10:22:42;6.57;;;4.03;;
6671;SDS011;3372;48.690;12.362;2022-08-04T10:25:44;5.37;;;3.87;;
6671;SDS011;3372;48.690;12.362;2022-08-04T10:28:21;4.20;;;3.90;;
6671;SDS011;3372;48.690;12.362;2022-08-04T10:30:53;4.50;;;4.10;;
6671;SDS011;3372;48.690;12.362;2022-08-04T10:33:23;4.70;;;4.30;;
6671;SDS011;3372;48.690;12.362;2022-08-04T10:36:03;4.67;;;4.27;;
6671;SDS011;3372;48.690;12.362;2022-08-04T10:46:49;4.57;;;4.17;;
6671;SDS011;3372;48.690;12.362;2022-08-04T10:52:00;5.07;;;3.90;;
6671;SDS011;3372;48.690;12.362;2022-08-04T10:54:49;3.60;;;3.30;;
6671;SDS011;3372;48.690;12.362;2022-08-04T10:57:45;4.63;;;4.23;;
6671;SDS011;3372;48.690;12.362;2022-08-04T11:00:24;3.77;;;3.47;;
6671;SDS011;3372;48.690;12.362;2022-08-04T11:08:24;4.07;;;3.77;;
6671;SDS011;3372;48.690;12.362;2022-08-04T11:11:04;3.83;;;3.53;;
6671;SDS011;3372;48.690;12.362;2022-08-04T11:13:41;4.67;;;3.70;;
6671;SDS011;3372;48.690;12.362;2022-08-04T11:16:54;4.10;;;3.70;;
6671;SDS011;3372;48.690;12.362;2022-08-04T11:21:31;3.70;;;3.40;;
6671;SDS011;3372;48.690;12.362;2022-08-04T11:27:16;3.37;;;3.07;;
6671;SDS011;3372;48.690;12.362;2022-08-04T11:29:50;3.60;;;3.30;;
6671;SDS011;3372;48.690;12.362;2022-08-04T11:35:33;4.50;;;4.10;;
6671;SDS011;3372;48.690;12.362;2022-08-04T11:40:46;4.83;;;3.80;;
6671;SDS011;3372;48.690;12.362;2022-08-04T11:46:23;4.23;;;3.83;;
6671;SDS011;3372;48.690;12.362;2022-08-04T11:49:00;3.67;;;3.37;;
6671;SDS011;3372;48.690;12.362;2022-08-04T11:51:32;4.73;;;4.13;;
6671;SDS011;3372;48.690;12.362;2022-08-04T11:54:00;4.53;;;3.20;;
6671;SDS011;3372;48.690;12.362;2022-08-04T11:56:26;3.70;;;3.40;;
6671;SDS011;3372;48.690;12.362;2022-08-04T11:58:52;3.80;;;3.50;;
6671;SDS011;3372;48.690;12.362;2022-08-04T12:01:25;3.93;;;3.63;;
6671;SDS011;3372;48.690;12.362;2022-08-04T12:12:41;3.30;;;3.00;;
6671;SDS011;3372;48.690;12.362;2022-08-04T12:15:28;3.20;;;2.87;;
6671;SDS011;3372;48.690;12.362;2022-08-04T12:20:38;3.80;;;3.50;;
6671;SDS011;3372;48.690;12.362;2022-08-04T12:23:13;3.50;;;3.30;;
6671;SDS011;3372;48.690;12.362;2022-08-04T12:25:43;4.00;;;3.63;;
6671;SDS011;3372;48.690;12.362;2022-08-04T12:28:57;3.60;;;3.30;;
6671;SDS011;3372;48.690;12.362;2022-08-04T12:34:06;3.67;;;3.37;;
6671;SDS011;3372;48.690;12.362;2022-08-04T12:36:42;5.00;;;3.83;;
6671;SDS011;3372;48.690;12.362;2022-08-04T12:39:19;3.47;;;3.17;;
6671;SDS011;3372;48.690;12.362;2022-08-04T12:41:51;3.50;;;3.20;;
6671;SDS011;3372;48.690;12.362;2022-08-04T12:44:40;4.10;;;3.70;;
6671;SDS011;3372;48.690;12.362;2022-08-04T12:47:09;5.60;;;3.50;;
6671;SDS011;3372;48.690;12.362;2022-08-04T12:49:36;3.80;;;3.50;;
6671;SDS011;3372;48.690;12.362;2022-08-04T12:52:06;3.87;;;3.40;;
6671;SDS011;3372;48.690;12.362;2022-08-04T12:54:33;3.50;;;3.20;;
6671;SDS011;3372;48.690;12.362;2022-08-04T12:57:02;5.20;;;3.60;;
6671;SDS011;3372;48.690;12.362;2022-08-04T12:59:36;3.93;;;3.60;;
6671;SDS011;3372;48.690;12.362;2022-08-04T13:02:17;3.90;;;3.53;;
6671;SDS011;3372;48.690;12.362;2022-08-04T13:04:50;3.60;;;3.30;;
6671;SDS011;3372;48.690;12.362;2022-08-04T13:07:19;3.77;;;3.10;;
6671;SDS011;3372;48.690;12.362;2022-08-04T13:09:47;3.63;;;3.30;;
6671;SDS011;3372;48.690;12.362;2022-08-04T13:12:33;3.87;;;3.57;;
6671;SDS011;3372;48.690;12.362;2022-08-04T13:15:10;4.33;;;3.30;;
6671;SDS011;3372;48.690;12.362;2022-08-04T13:17:45;4.13;;;3.73;;
6671;SDS011;3372;48.690;12.362;2022-08-04T13:20:33;3.40;;;3.10;;
6671;SDS011;3372;48.690;12.362;2022-08-04T13:23:08;3.43;;;3.23;;
6671;SDS011;3372;48.690;12.362;2022-08-04T13:25:36;4.50;;;3.47;;
6671;SDS011;3372;48.690;12.362;2022-08-04T13:28:07;3.70;;;3.40;;
6671;SDS011;3372;48.690;12.362;2022-08-04T13:30:54;3.50;;;3.20;;
6671;SDS011;3372;48.690;12.362;2022-08-04T13:33:26;3.43;;;3.10;;
6671;SDS011;3372;48.690;12.362;2022-08-04T13:35:55;3.70;;;3.40;;
6671;SDS011;3372;48.690;12.362;2022-08-04T13:38:23;3.60;;;3.30;;
6671;SDS011;3372;48.690;12.362;2022-08-04T13:40:49;3.60;;;3.30;;
6671;SDS011;3372;48.690;12.362;2022-08-04T13:43:26;3.53;;;3.20;;
6671;SDS011;3372;48.690;12.362;2022-08-04T13:46:02;4.00;;;3.63;;
6671;SDS011;3372;48.690;12.362;2022-08-04T13:48:30;3.73;;;3.43;;
6671;SDS011;3372;48.690;12.362;2022-08-04T13:51:04;3.40;;;3.10;;
6671;SDS011;3372;48.690;12.362;2022-08-04T13:53:31;3.93;;;3.30;;
6671;SDS011;3372;48.690;12.362;2022-08-04T13:55:59;3.50;;;3.20;;
6671;SDS011;3372;48.690;12.362;2022-08-04T13:58:29;4.50;;;3.43;;
6671;SDS011;3372;48.690;12.362;2022-08-04T14:03:30;3.70;;;3.40;;
6671;SDS011;3372;48.690;12.362;2022-08-04T14:06:05;4.17;;;3.70;;
6671;SDS011;3372;48.690;12.362;2022-08-04T14:08:48;3.63;;;3.33;;
6671;SDS011;3372;48.690;12.362;2022-08-04T14:11:18;3.63;;;3.30;;
6671;SDS011;3372;48.690;12.362;2022-08-04T14:13:47;4.10;;;3.70;;
6671;SDS011;3372;48.690;12.362;2022-08-04T14:16:19;3.57;;;3.37;;
6671;SDS011;3372;48.690;12.362;2022-08-04T14:18:45;3.43;;;3.00;;
6671;SDS011;3372;48.690;12.362;2022-08-04T14:21:15;3.80;;;3.40;;
6671;SDS011;3372;48.690;12.362;2022-08-04T14:23:45;4.07;;;3.13;;
6671;SDS011;3372;48.690;12.362;2022-08-04T14:28:46;3.60;;;3.30;;
6671;SDS011;3372;48.690;12.362;2022-08-04T14:31:13;3.63;;;3.10;;
6671;SDS011;3372;48.690;12.362;2022-08-04T14:33:42;4.60;;;3.73;;
6671;SDS011;3372;48.690;12.362;2022-08-04T14:36:09;3.60;;;3.30;;
6671;SDS011;3372;48.690;12.362;2022-08-04T14:38:44;3.20;;;2.80;;
6671;SDS011;3372;48.690;12.362;2022-08-04T14:41:17;4.40;;;3.73;;
6671;SDS011;3372;48.690;12.362;2022-08-04T14:43:55;3.60;;;3.30;;
6671;SDS011;3372;48.690;12.362;2022-08-04T14:46:23;3.80;;;3.20;;
6671;SDS011;3372;48.690;12.362;2022-08-04T14:51:52;3.60;;;3.30;;
6671;SDS011;3372;48.690;12.362;2022-08-04T14:54:26;3.77;;;3.47;;
6671;SDS011;3372;48.690;12.362;2022-08-04T14:56:55;3.43;;;3.13;;
6671;SDS011;3372;48.690;12.362;2022-08-04T14:59:41;5.00;;;3.47;;
6671;SDS011;3372;48.690;12.362;2022-08-04T15:02:08;4.03;;;3.73;;
6671;SDS011;3372;48.690;12.362;2022-08-04T15:04:35;3.77;;;3.40;;
6671;SDS011;3372;48.690;12.362;2022-08-04T15:07:03;3.60;;;3.30;;
6671;SDS011;3372;48.690;12.362;2022-08-04T15:09:30;3.83;;;3.00;;
6671;SDS011;3372;48.690;12.362;2022-08-04T15:11:56;3.87;;;3.43;;
6671;SDS011;3372;48.690;12.362;2022-08-04T15:14:22;3.60;;;3.30;;
6671;SDS011;3372;48.690;12.362;2022-08-04T15:16:49;6.00;;;3.33;;
6671;SDS011;3372;48.690;12.362;2022-08-04T15:19:15;3.70;;;3.40;;
6671;SDS011;3372;48.690;12.362;2022-08-04T15:21:40;4.37;;;3.30;;
6671;SDS011;3372;48.690;12.362;2022-08-04T15:24:07;4.03;;;3.43;;
6671;SDS011;3372;48.690;12.362;2022-08-04T15:26:52;3.90;;;3.23;;
6671;SDS011;3372;48.690;12.362;2022-08-04T15:29:29;3.60;;;3.30;;
6671;SDS011;3372;48.690;12.362;2022-08-04T15:32:10;3.80;;;3.50;;
6671;SDS011;3372;48.690;12.362;2022-08-04T15:34:46;3.90;;;3.60;;
6671;SDS011;3372;48.690;12.362;2022-08-04T15:40:20;4.03;;;3.63;;
6671;SDS011;3372;48.690;12.362;2022-08-04T15:43:03;3.87;;;3.47;;
6671;SDS011;3372;48.690;12.362;2022-08-04T15:48:32;3.73;;;3.43;;
6671;SDS011;3372;48.690;12.362;2022-08-04T15:50:59;3.90;;;3.47;;
6671;SDS011;3372;48.690;12.362;2022-08-04T15:53:31;3.80;;;3.50;;
6671;SDS011;3372;48.690;12.362;2022-08-04T15:56:18;4.10;;;3.70;;
6671;SDS011;3372;48.690;12.362;2022-08-04T15:58:49;4.40;;;3.30;;
6671;SDS011;3372;48.690;12.362;2022-08-04T16:01:16;3.93;;;3.53;;
6671;SDS011;3372;48.690;12.362;2022-08-04T16:03:44;3.70;;;3.20;;
6671;SDS011;3372;48.690;12.362;2022-08-04T16:18:53;5.07;;;3.50;;
6671;SDS011;3372;48.690;12.362;2022-08-04T16:21:20;3.70;;;3.40;;
6671;SDS011;3372;48.690;12.362;2022-08-04T16:32:05;3.73;;;3.40;;
6671;SDS011;3372;48.690;12.362;2022-08-04T16:34:36;4.30;;;3.63;;
6671;SDS011;3372;48.690;12.362;2022-08-04T16:37:18;3.57;;;3.07;;
6671;SDS011;3372;48.690;12.362;2022-08-04T16:39:44;5.07;;;3.37;;
6671;SDS011;3372;48.690;12.362;2022-08-04T16:50:10;6.10;;;3.70;;
6671;SDS011;3372;48.690;12.362;2022-08-04T16:52:41;3.63;;;3.30;;
6671;SDS011;3372;48.690;12.362;2022-08-04T16:55:11;4.33;;;3.80;;
6671;SDS011;3372;48.690;12.362;2022-08-04T16:57:39;3.77;;;3.47;;
6671;SDS011;3372;48.690;12.362;2022-08-04T17:00:05;3.97;;;3.67;;
6671;SDS011;3372;48.690;12.362;2022-08-04T17:02:32;6.23;;;3.43;;
6671;SDS011;3372;48.690;12.362;2022-08-04T17:04:59;3.67;;;3.37;;
6671;SDS011;3372;48.690;12.362;2022-08-04T17:07:24;3.70;;;3.40;;
6671;SDS011;3372;48.690;12.362;2022-08-04T17:09:50;3.73;;;3.40;;
6671;SDS011;3372;48.690;12.362;2022-08-04T17:12:16;4.43;;;3.27;;
6671;SDS011;3372;48.690;12.362;2022-08-04T17:14:42;3.73;;;3.43;;
6671;SDS011;3372;48.690;12.362;2022-08-04T17:17:07;3.60;;;3.30;;
6671;SDS011;3372;48.690;12.362;2022-08-04T17:19:33;4.17;;;3.23;;
6671;SDS011;3372;48.690;12.362;2022-08-04T17:22:03;4.80;;;3.63;;
6671;SDS011;3372;48.690;12.362;2022-08-04T17:24:33;3.83;;;3.53;;
6671;SDS011;3372;48.690;12.362;2022-08-04T17:27:01;6.00;;;4.00;;
6671;SDS011;3372;48.690;12.362;2022-08-04T17:29:27;3.63;;;3.23;;
6671;SDS011;3372;48.690;12.362;2022-08-04T17:31:56;3.73;;;3.43;;
6671;SDS011;3372;48.690;12.362;2022-08-04T17:34:21;3.30;;;3.00;;
6671;SDS011;3372;48.690;12.362;2022-08-04T17:36:49;4.30;;;3.90;;
6671;SDS011;3372;48.690;12.362;2022-08-04T17:39:19;3.93;;;3.60;;
6671;SDS011;3372;48.690;12.362;2022-08-04T17:41:48;4.80;;;4.20;;
6671;SDS011;3372;48.690;12.362;2022-08-04T17:44:20;3.90;;;3.60;;
6671;SDS011;3372;48.690;12.362;2022-08-04T17:46:58;3.93;;;3.53;;
6671;SDS011;3372;48.690;12.362;2022-08-04T17:49:32;4.10;;;3.70;;
6671;SDS011;3372;48.690;12.362;2022-08-04T17:51:58;5.93;;;3.60;;
6671;SDS011;3372;48.690;12.362;2022-08-04T17:56:58;4.50;;;3.93;;
6671;SDS011;3372;48.690;12.362;2022-08-04T17:59:26;4.20;;;3.27;;
6671;SDS011;3372;48.690;12.362;2022-08-04T18:01:57;4.17;;;3.87;;
6671;SDS011;3372;48.690;12.362;2022-08-04T18:07:12;4.10;;;3.70;;
6671;SDS011;3372;48.690;12.362;2022-08-04T18:17:10;4.50;;;4.10;;
6671;SDS011;3372;48.690;12.362;2022-08-04T18:19:38;4.20;;;3.73;;
6671;SDS011;3372;48.690;12.362;2022-08-04T18:22:15;6.50;;;4.17;;
6671;SDS011;3372;48.690;12.362;2022-08-04T18:24:41;3.93;;;3.63;;
6671;SDS011;3372;48.690;12.362;2022-08-04T18:27:06;4.00;;;3.60;;
6671;SDS011;3372;48.690;12.362;2022-08-04T18:29:32;4.20;;;3.80;;
6671;SDS011;3372;48.690;12.362;2022-08-04T18:31:58;4.60;;;4.20;;
6671;SDS011;3372;48.690;12.362;2022-08-04T18:34:24;4.63;;;4.23;;
6671;SDS011;3372;48.690;12.362;2022-08-04T18:36:49;4.07;;;3.67;;
6671;SDS011;3372;48.690;12.362;2022-08-04T18:39:15;4.33;;;3.90;;
6671;SDS011;3372;48.690;12.362;2022-08-04T18:41:44;4.23;;;3.83;;
6671;SDS011;3372;48.690;12.362;2022-08-04T18:44:10;4.40;;;4.00;;
6671;SDS011;3372;48.690;12.362;2022-08-04T18:46:35;4.83;;;4.33;;
6671;SDS011;3372;48.690;12.362;2022-08-04T18:49:01;4.90;;;4.40;;
6671;SDS011;3372;48.690;12.362;2022-08-04T18:51:27;5.53;;;4.57;;
6671;SDS011;3372;48.690;12.362;2022-08-04T18:53:53;7.13;;;4.60;;
6671;SDS011;3372;48.690;12.362;2022-08-04T18:56:18;4.87;;;4.47;;
6671;SDS011;3372;48.690;12.362;2022-08-04T18:58:44;4.80;;;4.40;;
6671;SDS011;3372;48.690;12.362;2022-08-04T19:01:09;5.70;;;4.73;;
6671;SDS011;3372;48.690;12.362;2022-08-04T19:03:37;4.60;;;4.20;;
6671;SDS011;3372;48.690;12.362;2022-08-04T19:06:03;4.23;;;3.93;;
6671;SDS011;3372;48.690;12.362;2022-08-04T19:08:29;4.73;;;4.33;;
6671;SDS011;3372;48.690;12.362;2022-08-04T19:10:55;4.70;;;4.30;;
6671;SDS011;3372;48.690;12.362;2022-08-04T19:13:22;5.30;;;4.37;;
6671;SDS011;3372;48.690;12.362;2022-08-04T19:15:47;5.53;;;4.80;;
6671;SDS011;3372;48.690;12.362;2022-08-04T19:18:13;5.20;;;4.80;;
6671;SDS011;3372;48.690;12.362;2022-08-04T19:20:38;4.40;;;4.00;;
6671;SDS011;3372;48.690;12.362;2022-08-04T19:23:04;4.53;;;4.13;;
6671;SDS011;3372;48.690;12.362;2022-08-04T19:25:29;5.20;;;4.40;;
6671;SDS011;3372;48.690;12.362;2022-08-04T19:27:55;5.00;;;4.60;;
6671;SDS011;3372;48.690;12.362;2022-08-04T19:30:21;5.90;;;4.43;;
6671;SDS011;3372;48.690;12.362;2022-08-04T19:32:47;4.33;;;4.00;;
6671;SDS011;3372;48.690;12.362;2022-08-04T19:35:12;4.40;;;4.10;;
6671;SDS011;3372;48.690;12.362;2022-08-04T19:37:38;4.63;;;4.23;;
6671;SDS011;3372;48.690;12.362;2022-08-04T19:40:04;7.33;;;5.70;;
6671;SDS011;3372;48.690;12.362;2022-08-04T19:42:32;6.40;;;5.50;;
6671;SDS011;3372;48.690;12.362;2022-08-04T19:44:58;5.13;;;4.63;;
6671;SDS011;3372;48.690;12.362;2022-08-04T19:47:24;7.17;;;6.47;;
6671;SDS011;3372;48.690;12.362;2022-08-04T19:49:50;7.00;;;5.77;;
6671;SDS011;3372;48.690;12.362;2022-08-04T19:52:16;4.90;;;4.50;;
6671;SDS011;3372;48.690;12.362;2022-08-04T19:54:42;6.40;;;4.30;;
6671;SDS011;3372;48.690;12.362;2022-08-04T19:57:08;4.40;;;4.00;;
6671;SDS011;3372;48.690;12.362;2022-08-04T19:59:33;5.17;;;4.67;;
6671;SDS011;3372;48.690;12.362;2022-08-04T20:01:59;6.73;;;4.67;;
6671;SDS011;3372;48.690;12.362;2022-08-04T20:04:24;5.50;;;5.00;;
6671;SDS011;3372;48.690;12.362;2022-08-04T20:06:50;6.10;;;4.33;;
6671;SDS011;3372;48.690;12.362;2022-08-04T20:09:17;4.50;;;4.10;;
6671;SDS011;3372;48.690;12.362;2022-08-04T20:11:43;5.33;;;3.90;;
6671;SDS011;3372;48.690;12.362;2022-08-04T20:14:09;5.60;;;5.10;;
6671;SDS011;3372;48.690;12.362;2022-08-04T20:16:35;4.87;;;4.47;;
6671;SDS011;3372;48.690;12.362;2022-08-04T20:19:00;4.43;;;4.03;;
6671;SDS011;3372;48.690;12.362;2022-08-04T20:21:26;4.90;;;4.50;;
6671;SDS011;3372;48.690;12.362;2022-08-04T20:23:51;4.60;;;4.17;;